Time;durP1;ratioP1;P1;durP2;ratioP2;P2;SDS_P1;SDS_P2;PMS_P1;PMS_P2;Temp;Humidity;BMP_temperature;BMP_pressure;BME280_temperature;BME280_humidity;BME280_pressure;Samples;Min_cycle;Max_cycle;Signal;HPM_P1;HPM_P2
2022/05/28 00:02:20;;;;;;;3.67;1.30;;;18.40;99.90;;;;;;5022648;28;20515;-76
2022/05/28 00:04:50;;;;;;;3.57;1.60;;;18.40;99.90;;;;;;5020568;28;20518;-77
2022/05/28 00:07:19;;;;;;;2.17;1.60;;;18.30;99.90;;;;;;5014724;28;20442;-76
2022/05/28 00:09:47;;;;;;;1.60;1.50;;;18.20;99.90;;;;;;5019384;28;20976;-76
2022/05/28 00:12:18;;;;;;;1.63;1.53;;;18.20;99.90;;;;;;5018138;28;20445;-76
2022/05/28 00:14:47;;;;;;;1.73;1.60;;;18.20;99.90;;;;;;5019738;28;20449;-77
2022/05/28 00:17:15;;;;;;;2.63;1.60;;;18.10;99.90;;;;;;5014726;28;21039;-77
2022/05/28 00:19:43;;;;;;;2.60;1.53;;;18.20;99.90;;;;;;5027346;28;20494;-77
2022/05/28 00:22:13;;;;;;;4.27;3.43;;;18.20;99.90;;;;;;5016504;28;20468;-77
2022/05/28 00:24:41;;;;;;;1.97;1.70;;;18.10;99.90;;;;;;5025072;28;20456;-78
2022/05/28 00:27:09;;;;;;;1.80;1.53;;;18.10;99.90;;;;;;5018378;28;22012;-77
2022/05/28 00:29:37;;;;;;;2.70;1.63;;;18.10;99.90;;;;;;5029430;28;20482;-76
2022/05/28 00:32:06;;;;;;;2.40;1.83;;;17.90;99.90;;;;;;5021457;28;21035;-77
2022/05/28 00:34:36;;;;;;;3.80;1.90;;;17.90;99.90;;;;;;5021998;28;20457;-76
2022/05/28 00:37:05;;;;;;;1.70;1.50;;;17.80;99.90;;;;;;5019318;28;20612;-77
2022/05/28 00:39:35;;;;;;;3.40;1.60;;;17.70;99.90;;;;;;5016470;28;20493;-77
2022/05/28 00:42:03;;;;;;;5.43;1.87;;;17.80;99.90;;;;;;5020052;28;20463;-77
2022/05/28 00:44:31;;;;;;;3.77;1.47;;;17.80;99.90;;;;;;5018019;28;20460;-77
2022/05/28 00:46:59;;;;;;;3.90;2.07;;;17.70;99.90;;;;;;5015015;28;20459;-77
2022/05/28 00:49:32;;;;;;;2.87;1.40;;;17.70;99.90;;;;;;5017057;28;20518;-77
2022/05/28 00:52:03;;;;;;;6.50;1.83;;;17.70;99.90;;;;;;5021518;28;20456;-78
2022/05/28 00:54:36;;;;;;;1.90;1.60;;;17.70;99.90;;;;;;5025598;28;20826;-77
2022/05/28 00:57:06;;;;;;;5.60;1.50;;;17.70;99.90;;;;;;5015416;28;20951;-77
2022/05/28 00:59:35;;;;;;;4.10;1.73;;;17.70;99.90;;;;;;5022264;28;20498;-76
2022/05/28 01:02:09;;;;;;;2.00;1.80;;;17.60;99.90;;;;;;5018956;28;20448;-77
2022/05/28 01:04:47;;;;;;;5.17;1.87;;;17.60;99.90;;;;;;5020214;28;20545;-76
2022/05/28 01:07:27;;;;;;;5.33;2.50;;;17.50;99.90;;;;;;5021253;28;21218;-77
2022/05/28 01:10:03;;;;;;;2.70;1.70;;;17.50;99.90;;;;;;5025934;28;20476;-77
2022/05/28 01:12:44;;;;;;;7.03;1.70;;;17.60;99.90;;;;;;5013383;28;20840;-76
2022/05/28 01:15:17;;;;;;;4.40;1.43;;;17.50;99.90;;;;;;5020543;28;20464;-77
2022/05/28 01:17:49;;;;;;;4.20;2.20;;;17.50;99.90;;;;;;5022955;28;20458;-76
2022/05/28 01:20:22;;;;;;;4.10;2.03;;;17.50;99.90;;;;;;5018007;28;20492;-77
2022/05/28 01:23:26;;;;;;;2.30;1.67;;;17.50;99.90;;;;;;5025335;28;20907;-76
2022/05/28 01:26:07;;;;;;;2.93;1.97;;;17.40;99.90;;;;;;5021918;28;20472;-75
2022/05/28 01:28:41;;;;;;;1.73;1.63;;;17.50;99.90;;;;;;5024336;28;20494;-76
2022/05/28 01:31:11;;;;;;;2.43;1.70;;;17.50;99.90;;;;;;5022487;28;20455;-76
2022/05/28 01:33:42;;;;;;;2.50;2.30;;;17.50;99.90;;;;;;5014793;28;20992;-77
2022/05/28 01:36:13;;;;;;;6.40;1.70;;;17.50;99.90;;;;;;5015385;28;20459;-76
2022/05/28 01:38:45;;;;;;;5.00;1.67;;;17.40;99.90;;;;;;5023918;28;20495;-76
2022/05/28 01:41:14;;;;;;;2.57;1.50;;;17.40;99.90;;;;;;5022866;28;20461;-76
2022/05/28 01:43:47;;;;;;;2.67;1.40;;;17.30;99.90;;;;;;5019741;28;20486;-76
2022/05/28 01:46:18;;;;;;;3.77;1.70;;;17.30;99.90;;;;;;5020034;28;20458;-76
2022/05/28 01:48:51;;;;;;;2.37;1.40;;;17.30;99.90;;;;;;5025395;28;21024;-76
2022/05/28 01:51:21;;;;;;;1.73;1.50;;;17.20;99.90;;;;;;5018322;28;20454;-76
2022/05/28 01:54:11;;;;;;;2.80;1.27;;;17.20;99.90;;;;;;5026501;28;20467;-77
2022/05/28 01:56:43;;;;;;;2.03;1.27;;;17.20;99.90;;;;;;5016493;28;20475;-77
2022/05/28 01:59:14;;;;;;;2.70;1.87;;;17.20;99.90;;;;;;5022149;28;20527;-76
2022/05/28 02:01:43;;;;;;;2.13;1.50;;;17.10;99.90;;;;;;5020426;28;20439;-77
2022/05/28 02:04:12;;;;;;;1.37;1.20;;;17.10;99.90;;;;;;5019349;28;20534;-76
2022/05/28 02:06:42;;;;;;;2.77;1.30;;;17.00;99.90;;;;;;5029499;28;20826;-76
2022/05/28 02:09:13;;;;;;;5.13;1.33;;;17.00;99.90;;;;;;5018666;28;20507;-76
2022/05/28 02:11:53;;;;;;;2.73;1.53;;;17.00;99.90;;;;;;5025617;28;20466;-76
2022/05/28 02:14:32;;;;;;;1.60;1.43;;;17.00;99.90;;;;;;5017754;28;20463;-77
2022/05/28 02:17:11;;;;;;;2.80;2.00;;;16.90;99.90;;;;;;5020053;28;20524;-76
2022/05/28 02:19:49;;;;;;;3.17;1.10;;;16.80;99.90;;;;;;5021601;28;20624;-77
2022/05/28 02:22:24;;;;;;;1.63;1.37;;;16.70;99.90;;;;;;5021709;28;21111;-78
2022/05/28 02:24:59;;;;;;;10.93;1.70;;;16.70;99.90;;;;;;5019137;28;20462;-77
2022/05/28 02:27:30;;;;;;;3.33;1.50;;;16.70;99.90;;;;;;5025349;28;20984;-77
2022/05/28 02:30:01;;;;;;;2.60;1.30;;;16.60;99.90;;;;;;5023182;28;20494;-77
2022/05/28 02:32:30;;;;;;;3.87;1.60;;;16.70;99.90;;;;;;5018379;28;20463;-76
2022/05/28 02:34:58;;;;;;;3.70;1.67;;;16.70;99.90;;;;;;5021693;28;20464;-76
2022/05/28 02:37:28;;;;;;;5.73;2.53;;;16.60;99.90;;;;;;5026322;28;20447;-77
2022/05/28 02:39:57;;;;;;;5.83;1.90;;;16.60;99.90;;;;;;5023314;28;20479;-76
2022/05/28 02:42:25;;;;;;;2.50;1.30;;;16.60;99.90;;;;;;5025761;28;20443;-77
2022/05/28 02:44:54;;;;;;;1.93;1.37;;;16.60;99.90;;;;;;5021141;28;20455;-78
2022/05/28 02:47:24;;;;;;;2.80;1.40;;;16.60;99.90;;;;;;5021719;28;20446;-77
2022/05/28 02:49:54;;;;;;;5.90;1.47;;;16.60;99.90;;;;;;5025906;28;20481;-78
2022/05/28 02:52:22;;;;;;;1.83;1.17;;;16.60;99.90;;;;;;5025917;28;20451;-77
2022/05/28 02:54:50;;;;;;;1.87;1.40;;;16.50;99.90;;;;;;5025501;28;20464;-78
2022/05/28 02:57:19;;;;;;;2.30;1.13;;;16.40;99.90;;;;;;5022410;28;20875;-77
2022/05/28 02:59:47;;;;;;;3.83;1.30;;;16.40;99.90;;;;;;5021651;28;20804;-77
2022/05/28 03:02:15;;;;;;;4.97;1.40;;;16.40;99.90;;;;;;5017423;28;20958;-77
2022/05/28 03:04:45;;;;;;;4.17;1.10;;;16.50;99.90;;;;;;5025742;28;20457;-77
2022/05/28 03:07:13;;;;;;;3.53;2.23;;;16.40;99.90;;;;;;5019620;28;20847;-76
2022/05/28 03:09:41;;;;;;;2.90;1.30;;;16.40;99.90;;;;;;5023699;28;20479;-77
2022/05/28 03:12:10;;;;;;;4.27;1.17;;;16.40;99.90;;;;;;5026768;28;20953;-77
2022/05/28 03:14:38;;;;;;;16.77;1.50;;;16.40;99.90;;;;;;5018130;28;20454;-77
2022/05/28 03:17:07;;;;;;;2.77;1.33;;;16.40;99.90;;;;;;5022190;28;20504;-78
2022/05/28 03:19:35;;;;;;;2.90;1.30;;;16.40;99.90;;;;;;5020986;28;21088;-77
2022/05/28 03:22:05;;;;;;;4.63;1.53;;;16.40;99.90;;;;;;5018876;28;20470;-77
2022/05/28 03:24:33;;;;;;;2.17;1.37;;;16.30;99.90;;;;;;5017834;28;20507;-77
2022/05/28 03:27:01;;;;;;;2.83;1.50;;;16.20;99.90;;;;;;5024748;28;20453;-77
2022/05/28 03:29:30;;;;;;;3.80;1.73;;;16.20;99.90;;;;;;5024159;28;20554;-78
2022/05/28 03:31:58;;;;;;;4.57;1.67;;;16.20;99.90;;;;;;5021874;28;20458;-78
2022/05/28 03:34:26;;;;;;;1.90;1.10;;;16.20;99.90;;;;;;5020832;28;20458;-77
2022/05/28 03:36:54;;;;;;;2.00;1.13;;;16.10;99.90;;;;;;5029402;28;20457;-77
2022/05/28 03:39:24;;;;;;;2.20;1.23;;;16.00;99.90;;;;;;5020961;28;20477;-78
2022/05/28 03:41:52;;;;;;;5.00;1.30;;;16.00;99.90;;;;;;5028168;28;20450;-78
2022/05/28 03:44:20;;;;;;;5.00;1.50;;;16.00;99.90;;;;;;5019414;28;20471;-78
2022/05/28 03:46:48;;;;;;;3.10;1.70;;;16.00;99.90;;;;;;5015995;28;20458;-78
2022/05/28 03:49:22;;;;;;;3.47;1.47;;;16.10;99.90;;;;;;5021528;28;20473;-77
2022/05/28 03:51:50;;;;;;;4.03;1.27;;;16.10;99.90;;;;;;5030397;28;20457;-78
2022/05/28 03:54:19;;;;;;;2.10;1.20;;;16.00;99.90;;;;;;5028019;28;20457;-77
2022/05/28 03:56:49;;;;;;;2.60;1.30;;;16.00;99.90;;;;;;5020614;28;20464;-77
2022/05/28 03:59:18;;;;;;;5.60;1.10;;;16.00;99.90;;;;;;5019059;28;20473;-77
2022/05/28 04:01:46;;;;;;;1.87;1.07;;;16.00;99.90;;;;;;5024357;28;20473;-78
2022/05/28 04:04:14;;;;;;;3.80;1.30;;;15.90;99.90;;;;;;5016476;28;20655;-78
2022/05/28 04:06:43;;;;;;;3.77;1.27;;;15.90;99.90;;;;;;5021835;28;20976;-77
2022/05/28 04:09:11;;;;;;;4.20;1.33;;;15.90;99.90;;;;;;5016378;28;20474;-77
2022/05/28 04:11:39;;;;;;;2.83;1.60;;;15.90;99.90;;;;;;5019082;28;20503;-78
2022/05/28 04:14:09;;;;;;;6.20;1.43;;;15.90;99.90;;;;;;5025522;28;20460;-77
2022/05/28 04:16:37;;;;;;;6.00;1.70;;;15.90;99.90;;;;;;5019262;28;20469;-77
2022/05/28 04:19:06;;;;;;;2.77;1.30;;;15.90;99.90;;;;;;5024483;28;20479;-78
2022/05/28 04:21:34;;;;;;;2.33;1.00;;;15.90;99.90;;;;;;5021775;28;20555;-77
2022/05/28 04:24:02;;;;;;;4.80;1.30;;;15.90;99.90;;;;;;5033470;28;20553;-76
2022/05/28 04:26:30;;;;;;;5.80;1.37;;;15.90;99.90;;;;;;5027057;28;22535;-78
2022/05/28 04:28:59;;;;;;;2.97;1.77;;;15.80;99.90;;;;;;5023052;28;20500;-78
2022/05/28 04:31:28;;;;;;;3.47;1.20;;;15.90;99.90;;;;;;5021911;28;20532;-78
2022/05/28 04:33:57;;;;;;;3.87;1.37;;;15.90;99.90;;;;;;5019062;28;20529;-78
2022/05/28 04:36:25;;;;;;;5.07;1.30;;;15.90;99.90;;;;;;5018897;28;20441;-77
2022/05/28 04:38:53;;;;;;;3.77;1.70;;;15.90;99.90;;;;;;5018556;28;20922;-78
2022/05/28 04:41:21;;;;;;;1.60;1.00;;;15.90;99.90;;;;;;5017919;28;20494;-78
2022/05/28 04:43:49;;;;;;;3.20;1.33;;;15.90;99.90;;;;;;5022497;28;20500;-78
2022/05/28 04:46:18;;;;;;;4.77;1.63;;;15.80;99.90;;;;;;5019574;28;20465;-78
2022/05/28 04:48:48;;;;;;;3.23;1.30;;;15.80;99.90;;;;;;5024051;28;20485;-78
2022/05/28 04:51:16;;;;;;;3.80;1.10;;;15.90;99.90;;;;;;5020781;28;20445;-78
2022/05/28 04:53:46;;;;;;;4.67;1.43;;;15.90;99.90;;;;;;5022703;28;20475;-78
2022/05/28 04:56:14;;;;;;;3.70;1.50;;;15.90;99.90;;;;;;5018462;28;20842;-78
2022/05/28 04:58:43;;;;;;;7.80;1.87;;;16.00;99.90;;;;;;5015130;28;20512;-78
2022/05/28 05:01:12;;;;;;;2.87;0.97;;;16.00;99.90;;;;;;5022646;28;21043;-78
2022/05/28 05:03:40;;;;;;;5.13;2.10;;;15.90;99.90;;;;;;5018013;28;20454;-78
2022/05/28 05:06:10;;;;;;;5.73;1.53;;;15.90;99.90;;;;;;5022228;28;20824;-78
2022/05/28 05:08:43;;;;;;;3.33;1.50;;;15.90;99.90;;;;;;5017480;28;20557;-78
2022/05/28 05:11:12;;;;;;;6.00;1.70;;;15.80;99.90;;;;;;5022966;28;20445;-77
2022/05/28 05:13:41;;;;;;;3.23;1.37;;;15.90;99.90;;;;;;5022370;28;21022;-77
2022/05/28 05:16:10;;;;;;;3.73;1.47;;;15.90;99.90;;;;;;5020193;28;20941;-77
2022/05/28 05:18:39;;;;;;;3.50;1.27;;;15.90;99.90;;;;;;5018915;28;20490;-76
2022/05/28 05:21:08;;;;;;;3.07;1.10;;;15.90;99.90;;;;;;5020662;28;20480;-77
2022/05/28 05:23:37;;;;;;;4.97;1.73;;;15.90;99.90;;;;;;5023043;28;20468;-78
2022/05/28 05:26:09;;;;;;;3.30;1.40;;;15.90;99.90;;;;;;5023927;28;20460;-76
2022/05/28 05:28:38;;;;;;;7.77;1.67;;;15.80;99.90;;;;;;5024621;28;20492;-77
2022/05/28 05:31:11;;;;;;;3.83;1.30;;;15.80;99.90;;;;;;5023106;28;20522;-76
2022/05/28 05:33:40;;;;;;;2.73;1.70;;;15.80;99.90;;;;;;5024091;28;20451;-76
2022/05/28 05:36:09;;;;;;;2.10;1.30;;;15.80;99.90;;;;;;5024241;28;20468;-77
2022/05/28 05:38:39;;;;;;;2.90;1.33;;;15.80;99.90;;;;;;5019992;28;20547;-76
2022/05/28 05:41:07;;;;;;;1.50;1.30;;;15.80;99.90;;;;;;5020490;28;20845;-76
2022/05/28 05:43:35;;;;;;;6.07;1.70;;;15.70;99.90;;;;;;5022402;28;20466;-76
2022/05/28 05:46:04;;;;;;;2.30;1.40;;;15.80;99.90;;;;;;5029652;28;22143;-77
2022/05/28 05:48:33;;;;;;;8.17;1.20;;;15.90;99.90;;;;;;5024484;28;20453;-76
2022/05/28 05:51:09;;;;;;;9.40;1.20;;;15.80;99.90;;;;;;5022801;28;20445;-76
2022/05/28 05:53:39;;;;;;;3.13;1.33;;;15.90;99.90;;;;;;5017908;28;21021;-77
2022/05/28 05:56:07;;;;;;;4.50;1.37;;;15.90;99.90;;;;;;5026187;28;20504;-78
2022/05/28 05:58:35;;;;;;;3.00;1.80;;;16.00;99.90;;;;;;5034474;28;20469;-79
2022/05/28 06:01:05;;;;;;;4.63;1.37;;;16.00;99.90;;;;;;5036345;28;21206;-79
2022/05/28 06:03:34;;;;;;;3.27;1.13;;;16.10;99.90;;;;;;5027693;28;20999;-79
2022/05/28 06:06:05;;;;;;;1.97;1.20;;;16.10;99.90;;;;;;5025542;28;20450;-79
2022/05/28 06:08:33;;;;;;;3.53;1.60;;;16.10;99.90;;;;;;5018914;28;20767;-78
2022/05/28 06:11:03;;;;;;;2.93;1.30;;;16.20;99.90;;;;;;5022348;28;20460;-79
2022/05/28 06:13:31;;;;;;;3.20;1.07;;;16.20;99.90;;;;;;5020130;28;20463;-79
2022/05/28 06:15:59;;;;;;;3.73;1.30;;;16.20;99.90;;;;;;5028623;28;20453;-77
2022/05/28 06:18:27;;;;;;;2.83;0.77;;;16.20;99.90;;;;;;5031377;28;20446;-80
2022/05/28 06:20:56;;;;;;;2.40;0.90;;;16.30;99.90;;;;;;5027313;28;20450;-79
2022/05/28 06:23:24;;;;;;;3.00;0.93;;;16.30;99.90;;;;;;5032988;28;20453;-76
2022/05/28 06:25:52;;;;;;;3.77;1.47;;;16.30;99.90;;;;;;5025243;28;20461;-77
2022/05/28 06:28:22;;;;;;;2.80;1.00;;;16.30;99.90;;;;;;5029057;28;20981;-77
2022/05/28 06:30:51;;;;;;;4.87;1.87;;;16.30;99.90;;;;;;5024570;28;20449;-76
2022/05/28 06:33:19;;;;;;;4.47;1.20;;;16.40;99.90;;;;;;5026271;28;20548;-76
2022/05/28 06:35:49;;;;;;;2.37;1.00;;;16.40;99.90;;;;;;5019318;28;20473;-77
2022/05/28 06:38:17;;;;;;;6.40;1.40;;;16.40;99.90;;;;;;5024261;28;20454;-77
2022/05/28 06:40:45;;;;;;;1.47;1.00;;;16.40;99.90;;;;;;5023981;28;21164;-76
2022/05/28 06:43:13;;;;;;;2.93;1.10;;;16.40;99.90;;;;;;5022246;28;20473;-77
2022/05/28 06:45:43;;;;;;;2.03;1.00;;;16.40;99.90;;;;;;5023093;28;20445;-77
2022/05/28 06:48:11;;;;;;;4.03;1.70;;;16.50;99.90;;;;;;5016519;28;20453;-82
2022/05/28 06:53:25;;;;;;;3.22;1.17;;;16.90;99.90;;;;;;5019076;28;20437;-76
2022/05/28 06:55:54;;;;;;;2.47;0.90;;;17.00;99.90;;;;;;5031391;28;20425;-76
2022/05/28 06:58:22;;;;;;;1.37;1.00;;;17.20;99.90;;;;;;5022064;28;20472;-76
2022/05/28 07:00:52;;;;;;;1.83;0.70;;;17.20;99.90;;;;;;5031289;28;20490;-76
2022/05/28 07:03:22;;;;;;;1.87;1.00;;;17.30;99.90;;;;;;5025038;28;20545;-77
2022/05/28 07:05:51;;;;;;;3.67;0.73;;;17.40;99.90;;;;;;5027663;28;20451;-77
2022/05/28 07:08:19;;;;;;;2.23;0.90;;;17.40;99.90;;;;;;5028571;28;20449;-75
2022/05/28 07:10:51;;;;;;;1.80;0.90;;;17.50;99.90;;;;;;5019485;28;20462;-77
2022/05/28 07:13:21;;;;;;;3.63;1.00;;;17.50;99.90;;;;;;5023369;28;20462;-76
2022/05/28 07:15:49;;;;;;;1.67;0.80;;;17.50;99.90;;;;;;5022643;28;20447;-76
2022/05/28 07:18:20;;;;;;;1.00;0.70;;;17.60;99.90;;;;;;5018846;28;20455;-77
2022/05/28 07:20:49;;;;;;;2.83;0.90;;;17.70;99.90;;;;;;5020807;28;20956;-76
2022/05/28 07:23:20;;;;;;;3.37;1.10;;;17.60;99.90;;;;;;5019820;28;20480;-77
2022/05/28 07:25:49;;;;;;;3.87;1.00;;;17.60;99.90;;;;;;5023029;28;20474;-78
2022/05/28 07:28:27;;;;;;;3.13;0.93;;;17.70;99.90;;;;;;5022888;28;20805;-77
2022/05/28 07:30:56;;;;;;;1.97;1.57;;;17.80;99.90;;;;;;5020649;28;20466;-78
2022/05/28 07:33:27;;;;;;;1.97;0.80;;;17.80;99.90;;;;;;5024753;28;20444;-80
2022/05/28 07:35:57;;;;;;;0.80;0.60;;;17.70;99.90;;;;;;5029595;28;20947;-78
2022/05/28 07:38:27;;;;;;;2.03;0.80;;;17.70;99.90;;;;;;5031060;28;20439;-80
2022/05/28 07:40:55;;;;;;;1.87;1.00;;;17.70;99.90;;;;;;5017893;28;20474;-81
2022/05/28 07:43:23;;;;;;;1.90;0.97;;;17.70;99.90;;;;;;5016513;28;20467;-80
2022/05/28 07:45:52;;;;;;;0.97;0.90;;;17.70;99.90;;;;;;5019063;28;20470;-77
2022/05/28 07:48:20;;;;;;;1.17;0.80;;;17.80;99.90;;;;;;5018894;28;20446;-78
2022/05/28 07:50:50;;;;;;;2.20;0.70;;;17.80;99.90;;;;;;5015367;28;20470;-78
2022/05/28 07:53:18;;;;;;;0.87;0.73;;;17.90;99.90;;;;;;5010803;28;20455;-77
2022/05/28 07:55:46;;;;;;;1.20;0.70;;;17.90;99.90;;;;;;5011752;28;21093;-78
2022/05/28 07:58:18;;;;;;;1.07;0.70;;;17.90;98.20;;;;;;5015412;28;20524;-77
2022/05/28 08:00:49;;;;;;;4.27;0.80;;;17.90;97.90;;;;;;5017796;28;20455;-78
2022/05/28 08:03:18;;;;;;;1.90;1.73;;;18.00;95.60;;;;;;5021448;28;20496;-77
2022/05/28 08:05:48;;;;;;;1.10;0.80;;;18.00;93.80;;;;;;5013591;28;20463;-78
2022/05/28 08:08:18;;;;;;;3.43;1.10;;;18.00;91.50;;;;;;5011881;28;20463;-78
2022/05/28 08:10:48;;;;;;;0.63;0.60;;;18.00;90.30;;;;;;5019098;28;21176;-77
2022/05/28 08:13:19;;;;;;;1.10;0.60;;;18.00;91.60;;;;;;5018414;28;20452;-77
2022/05/28 08:15:49;;;;;;;2.53;0.90;;;18.10;89.00;;;;;;5028770;28;20463;-77
2022/05/28 08:18:20;;;;;;;0.80;0.50;;;18.00;77.30;;;;;;5013581;28;21026;-78
2022/05/28 08:23:38;;;;;;;2.17;0.63;;;18.10;83.00;;;;;;5021644;28;21303;-78
2022/05/28 08:26:07;;;;;;;1.47;0.57;;;18.10;90.00;;;;;;5023584;28;20472;-79
2022/05/28 08:28:37;;;;;;;2.70;0.70;;;18.20;86.80;;;;;;5015406;28;20991;-79
2022/05/28 08:31:05;;;;;;;1.03;1.00;;;18.30;84.80;;;;;;5017541;28;20537;-79
2022/05/28 08:33:34;;;;;;;1.00;0.67;;;18.30;85.90;;;;;;5012298;28;20551;-78
2022/05/28 08:36:03;;;;;;;2.00;0.90;;;18.40;87.60;;;;;;5017918;28;20464;-79
2022/05/28 08:38:31;;;;;;;1.60;0.80;;;18.40;87.50;;;;;;5026794;28;20467;-79
2022/05/28 08:41:06;;;;;;;1.77;0.80;;;18.40;86.30;;;;;;5023227;28;20521;-77
2022/05/28 08:43:36;;;;;;;0.80;0.70;;;18.40;83.40;;;;;;5014040;28;20526;-79
2022/05/28 08:46:07;;;;;;;1.70;0.90;;;18.50;80.40;;;;;;5011521;28;20452;-79
2022/05/28 08:48:41;;;;;;;0.87;0.70;;;18.50;80.00;;;;;;5016504;28;20448;-79
2022/05/28 08:51:14;;;;;;;4.00;2.00;;;18.60;75.30;;;;;;5017393;28;20466;-79
2022/05/28 08:53:48;;;;;;;0.60;0.60;;;18.40;67.60;;;;;;5026720;28;20562;-78
2022/05/28 08:56:22;;;;;;;0.73;0.60;;;18.30;72.60;;;;;;5024297;28;21332;-79
2022/05/28 08:59:02;;;;;;;0.90;0.60;;;18.30;78.50;;;;;;5011600;28;21190;-78
2022/05/28 09:01:34;;;;;;;1.50;0.60;;;18.30;72.40;;;;;;5013997;28;20462;-78
2022/05/28 09:04:06;;;;;;;1.27;0.80;;;18.30;70.70;;;;;;5014815;28;20519;-78
2022/05/28 09:06:40;;;;;;;1.10;0.60;;;18.40;74.40;;;;;;5014213;28;20470;-77
2022/05/28 09:09:09;;;;;;;1.50;0.70;;;18.50;75.30;;;;;;5014683;28;20483;-77
2022/05/28 09:11:43;;;;;;;1.53;0.57;;;18.60;75.10;;;;;;5019743;28;20472;-77
2022/05/28 09:14:23;;;;;;;1.03;0.93;;;18.70;71.60;;;;;;5019233;28;21158;-77
2022/05/28 09:16:53;;;;;;;1.27;0.70;;;18.70;90.50;;;;;;5009860;28;20471;-78
2022/05/28 09:19:25;;;;;;;1.40;0.90;;;18.70;74.20;;;;;;5014616;28;20498;-78
2022/05/28 09:21:53;;;;;;;2.00;0.83;;;18.70;70.80;;;;;;5015881;28;20463;-78
2022/05/28 09:24:25;;;;;;;0.80;0.80;;;18.70;72.50;;;;;;5022651;28;20490;-77
2022/05/28 09:27:04;;;;;;;1.90;0.70;;;18.70;71.80;;;;;;5015721;28;20467;-79
2022/05/28 09:30:03;;;;;;;0.93;0.70;;;18.70;70.30;;;;;;5011609;28;20584;-77
2022/05/28 09:32:43;;;;;;;1.00;0.60;;;18.70;66.30;;;;;;5016404;28;20466;-77
2022/05/28 09:35:21;;;;;;;0.97;0.60;;;18.70;67.70;;;;;;5017835;28;20520;-78
2022/05/28 09:37:58;;;;;;;5.00;0.60;;;18.70;64.00;;;;;;5020176;28;20454;-77
2022/05/28 09:40:35;;;;;;;0.87;0.70;;;18.60;59.30;;;;;;5018467;28;20475;-76
2022/05/28 09:43:28;;;;;;;1.83;0.73;;;18.60;62.00;;;;;;5018798;28;20488;-76
2022/05/28 09:46:06;;;;;;;1.27;0.60;;;18.60;64.50;;;;;;5016385;28;20456;-76
2022/05/28 09:48:34;;;;;;;2.23;0.80;;;18.80;66.40;;;;;;5014788;28;20458;-77
2022/05/28 09:51:02;;;;;;;1.90;0.60;;;18.80;65.90;;;;;;5016187;28;20987;-77
2022/05/28 09:56:27;;;;;;;1.03;0.80;;;18.90;65.20;;;;;;5017621;28;20453;-75
2022/05/28 09:58:57;;;;;;;4.73;0.83;;;18.90;66.10;;;;;;5017315;28;20483;-76
2022/05/28 10:01:27;;;;;;;0.87;0.60;;;18.90;68.60;;;;;;5019302;28;20456;-77
2022/05/28 10:06:47;;;;;;;1.40;0.70;;;19.00;72.70;;;;;;5014410;28;20464;-76
2022/05/28 10:09:19;;;;;;;1.33;0.60;;;19.00;66.40;;;;;;5019258;28;20541;-75
2022/05/28 10:11:56;;;;;;;1.70;1.30;;;19.10;65.40;;;;;;5021663;28;20467;-75
2022/05/28 10:14:28;;;;;;;1.73;0.63;;;19.10;65.40;;;;;;5018761;28;20964;-75
2022/05/28 10:16:59;;;;;;;2.27;2.03;;;19.20;67.90;;;;;;5019856;28;20460;-75
2022/05/28 10:19:31;;;;;;;2.13;0.80;;;19.20;69.80;;;;;;5024923;28;20467;-76
2022/05/28 10:22:02;;;;;;;1.57;0.80;;;19.20;69.10;;;;;;5020611;28;20554;-76
2022/05/28 10:24:37;;;;;;;1.80;0.60;;;19.30;69.80;;;;;;5022687;28;21110;-76
2022/05/28 10:27:06;;;;;;;2.10;0.60;;;19.30;69.20;;;;;;5032794;28;20463;-75
2022/05/28 10:29:38;;;;;;;2.17;0.82;;;19.30;70.00;;;;;;5014236;28;20501;-76
2022/05/28 10:32:18;;;;;;;0.80;0.67;;;19.40;70.30;;;;;;5013867;28;20289;-75
2022/05/28 10:34:46;;;;;;;0.80;0.50;;;19.40;70.60;;;;;;5018999;28;20717;-75
2022/05/28 10:37:19;;;;;;;3.80;0.77;;;19.40;69.40;;;;;;5019224;28;20519;-75
2022/05/28 10:39:48;;;;;;;2.70;0.70;;;19.40;67.60;;;;;;5016066;28;20488;-76
2022/05/28 10:42:17;;;;;;;0.70;0.67;;;19.40;64.10;;;;;;5021378;28;21229;-76
2022/05/28 10:44:46;;;;;;;1.00;0.70;;;19.40;66.20;;;;;;5018869;28;20485;-78
2022/05/28 10:47:35;;;;;;;2.00;0.80;;;19.40;67.00;;;;;;5011490;28;20878;-80
2022/05/28 10:50:16;;;;;;;0.90;0.60;;;19.50;66.50;;;;;;5020373;28;20481;-78
2022/05/28 10:52:58;;;;;;;1.47;0.60;;;19.50;62.20;;;;;;5020313;28;20461;-78
2022/05/28 10:55:35;;;;;;;1.27;0.90;;;19.50;60.40;;;;;;5015356;28;20948;-78
2022/05/28 10:58:25;;;;;;;1.37;0.60;;;19.50;61.40;;;;;;5014675;28;20526;-78
2022/05/28 11:01:02;;;;;;;1.87;0.63;;;19.60;59.20;;;;;;5019765;28;20456;-79
2022/05/28 11:04:03;;;;;;;3.23;0.80;;;19.60;60.40;;;;;;5024304;28;20453;-79
2022/05/28 11:06:50;;;;;;;1.90;0.60;;;19.60;61.70;;;;;;5016704;28;20481;-78
2022/05/28 11:09:29;;;;;;;2.03;0.90;;;19.50;62.60;;;;;;5021722;28;20507;-78
2022/05/28 11:12:10;;;;;;;1.03;0.70;;;19.40;62.90;;;;;;5025896;28;20475;-77
2022/05/28 11:15:04;;;;;;;3.23;0.67;;;19.40;64.50;;;;;;5014953;28;20452;-79
2022/05/28 11:17:46;;;;;;;1.37;0.67;;;19.30;63.70;;;;;;5017269;28;20456;-78
2022/05/28 11:20:24;;;;;;;1.53;0.70;;;19.30;64.40;;;;;;5014647;28;20556;-79
2022/05/28 11:23:17;;;;;;;1.70;0.60;;;19.30;63.30;;;;;;5020498;28;20463;-80
2022/05/28 11:25:59;;;;;;;3.35;0.80;;;19.40;65.50;;;;;;5020991;28;20465;-80
2022/05/28 11:28:52;;;;;;;1.53;0.70;;;19.40;61.30;;;;;;5014215;28;20214;-79
2022/05/28 11:31:29;;;;;;;1.47;0.70;;;19.40;61.90;;;;;;5014016;28;20480;-79
2022/05/28 11:34:07;;;;;;;1.40;0.87;;;19.50;61.40;;;;;;5015064;28;20586;-79
2022/05/28 11:36:40;;;;;;;1.87;1.30;;;19.60;63.50;;;;;;5023348;28;20464;-79
2022/05/28 11:39:16;;;;;;;1.70;0.73;;;19.60;61.70;;;;;;5026724;28;20480;-80
2022/05/28 11:41:51;;;;;;;1.17;0.70;;;19.60;59.10;;;;;;5018443;28;20455;-79
2022/05/28 11:44:29;;;;;;;2.87;1.30;;;19.60;58.30;;;;;;5016007;28;20473;-79
2022/05/28 11:47:09;;;;;;;1.33;0.83;;;19.60;55.90;;;;;;5020866;28;20513;-79
2022/05/28 11:52:35;;;;;;;1.10;0.60;;;19.60;58.60;;;;;;5028342;28;21128;-78
2022/05/28 11:55:10;;;;;;;0.80;0.63;;;19.70;55.20;;;;;;5028675;28;20440;-78
2022/05/28 11:57:43;;;;;;;0.60;0.60;;;19.80;55.20;;;;;;5015530;28;20510;-79
2022/05/28 12:00:15;;;;;;;2.53;0.67;;;19.90;55.00;;;;;;5021571;28;20479;-79
2022/05/28 12:02:47;;;;;;;0.97;0.70;;;19.90;54.80;;;;;;5020687;28;20468;-78
2022/05/28 12:05:20;;;;;;;1.10;0.60;;;20.00;56.50;;;;;;5019336;28;20465;-79
2022/05/28 12:07:55;;;;;;;0.97;0.70;;;20.00;58.50;;;;;;5028459;28;20456;-78
2022/05/28 12:10:38;;;;;;;2.67;1.37;;;20.00;55.80;;;;;;5027938;28;20986;-79
2022/05/28 12:13:09;;;;;;;0.67;0.67;;;20.00;56.70;;;;;;5026775;28;20845;-79
2022/05/28 12:15:38;;;;;;;1.00;0.67;;;20.00;57.50;;;;;;5020727;28;20451;-79
2022/05/28 12:18:22;;;;;;;1.07;0.70;;;20.40;55.30;;;;;;5027833;28;20455;-79
2022/05/28 12:20:54;;;;;;;1.00;0.63;;;20.20;56.90;;;;;;5027716;28;20456;-79
2022/05/28 12:23:31;;;;;;;2.50;0.90;;;20.20;55.20;;;;;;5027300;28;20463;-79
2022/05/28 12:26:01;;;;;;;0.60;0.60;;;20.30;56.10;;;;;;5028042;28;20483;-80
2022/05/28 12:28:43;;;;;;;2.60;2.40;;;20.40;56.50;;;;;;5029093;28;20456;-79
2022/05/28 12:31:24;;;;;;;1.60;0.60;;;20.40;55.50;;;;;;5022034;28;20487;-80
2022/05/28 12:33:55;;;;;;;1.40;0.60;;;20.40;55.50;;;;;;5028845;28;20948;-80
2022/05/28 12:36:37;;;;;;;1.50;0.60;;;20.50;54.50;;;;;;5022215;28;20972;-80
2022/05/28 12:39:21;;;;;;;0.60;0.60;;;20.50;53.20;;;;;;5010818;28;20480;-79
2022/05/28 12:41:58;;;;;;;0.87;0.87;;;20.40;50.40;;;;;;5015938;28;20466;-79
2022/05/28 12:44:28;;;;;;;1.00;0.77;;;20.40;50.80;;;;;;5028740;28;20459;-79
2022/05/28 12:46:59;;;;;;;2.33;0.60;;;20.40;50.60;;;;;;5028680;28;20467;-80
2022/05/28 12:49:31;;;;;;;1.40;0.63;;;20.30;51.20;;;;;;5027268;28;20491;-80
2022/05/28 12:52:28;;;;;;;1.60;0.90;;;20.30;50.70;;;;;;5028528;28;20449;-78
2022/05/28 12:55:17;;;;;;;2.03;0.90;;;20.30;48.70;;;;;;5015973;28;20467;-79
2022/05/28 12:57:58;;;;;;;1.10;1.00;;;20.30;49.00;;;;;;5023873;28;20534;-79
2022/05/28 13:00:29;;;;;;;1.97;0.80;;;20.30;50.20;;;;;;5028125;28;20491;-79
2022/05/28 13:02:59;;;;;;;1.20;0.80;;;20.30;53.70;;;;;;5028386;28;20455;-79
2022/05/28 13:05:35;;;;;;;1.90;0.80;;;20.40;57.90;;;;;;5027716;28;20492;-79
2022/05/28 13:08:09;;;;;;;1.93;0.70;;;20.50;53.30;;;;;;5022392;28;20471;-79
2022/05/28 13:10:44;;;;;;;0.73;0.70;;;20.40;53.60;;;;;;5016803;28;20486;-80
2022/05/28 13:13:31;;;;;;;0.70;0.60;;;20.40;68.70;;;;;;5026462;28;20455;-79
2022/05/28 13:16:31;;;;;;;0.70;0.50;;;20.40;52.10;;;;;;5014297;28;20558;-80
2022/05/28 13:19:29;;;;;;;0.67;0.67;;;20.40;53.10;;;;;;5027800;28;20480;-78
2022/05/28 13:22:03;;;;;;;1.77;0.60;;;20.40;51.30;;;;;;5027270;28;20463;-80
2022/05/28 13:25:17;;;;;;;1.20;0.87;;;20.50;54.00;;;;;;5028027;28;20877;-80
2022/05/28 13:28:21;;;;;;;1.17;0.80;;;20.50;53.80;;;;;;5019222;28;20961;-80
2022/05/28 13:30:52;;;;;;;3.10;0.70;;;20.60;55.00;;;;;;5015949;28;20473;-80